Time;durP1;ratioP1;P1;durP2;ratioP2;P2;SDS_P1;SDS_P2;PMS_P1;PMS_P2;Temp;Humidity;BMP_temperature;BMP_pressure;BME280_temperature;BME280_humidity;BME280_pressure;Samples;Min_cycle;Max_cycle;Signal;HPM_P1;HPM_P2
2022/03/05 00:01:48;;;;;;;205.77;161.38;;;;;;;14.21;24.03;93678.69;5095767;27;20065;-64
2022/03/05 00:04:15;;;;;;;201.68;159.50;;;;;;;14.19;24.14;93679.13;5110590;27;20043;-64
2022/03/05 00:06:41;;;;;;;195.05;154.23;;;;;;;14.20;23.89;93671.81;5111553;27;20580;-63
2022/03/05 00:09:06;;;;;;;212.75;169.85;;;;;;;14.18;24.03;93664.91;5111146;27;20051;-65
2022/03/05 00:11:32;;;;;;;204.20;162.75;;;;;;;14.18;24.01;93669.53;5111055;27;20042;-64
2022/03/05 00:13:58;;;;;;;194.75;155.00;;;;;;;14.18;24.03;93669.53;5114108;27;20036;-63
2022/03/05 00:16:24;;;;;;;204.85;163.23;;;;;;;14.17;24.06;93665.34;5108278;27;20089;-63
2022/03/05 00:18:49;;;;;;;194.90;153.57;;;;;;;14.15;23.73;93667.72;5114963;27;20103;-63
2022/03/05 00:21:16;;;;;;;197.50;156.52;;;;;;;14.15;24.04;93670.41;5105772;27;20403;-62
2022/03/05 00:23:41;;;;;;;197.40;156.25;;;;;;;14.14;24.16;93664.28;5114849;27;20130;-62
2022/03/05 00:26:07;;;;;;;195.05;154.38;;;;;;;14.14;24.21;93672.34;5114198;27;20031;-63
2022/03/05 00:28:33;;;;;;;199.55;156.82;;;;;;;14.15;24.29;93678.50;5107918;27;20175;-63
2022/03/05 00:31:00;;;;;;;194.50;153.75;;;;;;;14.14;24.25;93676.97;5115614;27;20164;-63
2022/03/05 00:33:26;;;;;;;196.77;156.27;;;;;;;14.15;24.04;93679.25;5113034;27;20051;-63
2022/03/05 00:35:52;;;;;;;198.55;157.70;;;;;;;14.12;24.13;93674.72;5098011;27;20039;-62
2022/03/05 00:38:18;;;;;;;199.15;155.63;;;;;;;14.16;24.16;93677.31;5096200;28;20058;-63
2022/03/05 00:40:44;;;;;;;203.50;161.32;;;;;;;14.16;23.97;93674.63;5093874;27;20040;-63
2022/03/05 00:43:10;;;;;;;201.05;159.57;;;;;;;14.13;24.36;93678.16;5108570;27;20104;-62
2022/03/05 00:45:37;;;;;;;200.40;158.48;;;;;;;14.12;24.19;93671.28;5106394;27;20038;-63
2022/03/05 00:48:03;;;;;;;195.70;154.57;;;;;;;14.14;24.25;93666.97;5114650;27;20035;-63
2022/03/05 00:50:29;;;;;;;194.40;154.52;;;;;;;14.16;24.44;93669.22;5108608;27;20406;-62
2022/03/05 00:52:55;;;;;;;194.18;155.65;;;;;;;14.14;24.07;93669.66;5119336;27;20031;-62
2022/03/05 00:55:21;;;;;;;192.18;153.70;;;;;;;14.16;24.31;93661.16;5108795;27;20032;-62
2022/03/05 00:57:46;;;;;;;194.57;156.68;;;;;;;14.17;24.30;93673.41;5110229;27;20057;-61
2022/03/05 01:00:12;;;;;;;222.20;177.27;;;;;;;14.15;24.31;93667.72;5114547;27;20111;-63
2022/03/05 01:02:39;;;;;;;188.43;152.13;;;;;;;14.17;24.36;93662.66;5093552;28;20116;-63
2022/03/05 01:05:05;;;;;;;190.93;152.23;;;;;;;14.16;24.44;93669.22;5112149;27;20111;-62
2022/03/05 01:07:31;;;;;;;193.02;155.40;;;;;;;14.15;24.37;93663.09;5104160;27;20047;-63
2022/03/05 01:09:57;;;;;;;191.23;152.43;;;;;;;14.14;24.31;93661.59;5107498;27;20185;-61
2022/03/05 01:12:23;;;;;;;196.45;156.43;;;;;;;14.15;24.49;93665.78;5107261;27;20070;-63
2022/03/05 01:14:49;;;;;;;201.65;160.32;;;;;;;14.16;24.24;93661.91;5106281;27;20051;-63
2022/03/05 01:17:15;;;;;;;191.23;153.82;;;;;;;14.16;24.33;93664.59;5119077;27;20040;-63
2022/03/05 01:19:40;;;;;;;189.80;151.20;;;;;;;14.15;24.56;93663.09;5099313;28;20044;-62
2022/03/05 01:22:06;;;;;;;184.75;149.07;;;;;;;14.15;24.33;93665.03;5118485;27;20160;-64
2022/03/05 01:24:32;;;;;;;191.32;152.35;;;;;;;14.15;24.06;93659.66;5112104;28;20047;-63
2022/03/05 01:26:57;;;;;;;190.18;153.02;;;;;;;14.16;24.23;93658.47;5108394;28;20070;-62
2022/03/05 01:29:23;;;;;;;193.98;155.60;;;;;;;14.14;24.50;93656.22;5115907;28;20057;-62
2022/03/05 01:31:49;;;;;;;199.63;158.50;;;;;;;14.15;24.30;93665.03;5092088;28;20406;-63
2022/03/05 01:34:15;;;;;;;205.32;161.57;;;;;;;14.15;24.56;93652.34;5117444;28;20043;-61
2022/03/05 01:36:41;;;;;;;201.13;160.60;;;;;;;14.14;24.33;93661.59;5108926;28;20810;-63
2022/03/05 01:39:06;;;;;;;195.02;156.07;;;;;;;14.13;24.18;93652.03;5104716;28;20040;-62
2022/03/05 01:41:32;;;;;;;191.52;151.75;;;;;;;14.13;24.20;93648.59;5106558;28;20484;-63
2022/03/05 01:43:58;;;;;;;194.85;153.95;;;;;;;14.13;24.12;93657.41;5113708;27;20043;-62
2022/03/05 01:46:38;;;;;;;195.23;155.25;;;;;;;14.13;24.43;93648.59;5109483;28;20741;-61
2022/03/05 01:49:07;;;;;;;194.90;153.95;;;;;;;14.13;24.21;93646.66;5117694;28;20035;-62
2022/03/05 01:51:32;;;;;;;197.07;155.32;;;;;;;14.12;24.10;93649.78;5113384;28;20032;-63
2022/03/05 01:53:58;;;;;;;213.70;178.07;;;;;;;14.12;24.38;93647.09;5082315;28;20065;-62
2022/03/05 01:56:26;;;;;;;199.70;158.98;;;;;;;14.12;24.05;93649.78;5079696;28;20040;-63
2022/03/05 01:58:52;;;;;;;189.55;150.43;;;;;;;14.13;24.21;93653.97;5088413;28;20058;-62
2022/03/05 02:01:24;;;;;;;209.57;162.95;;;;;;;14.09;24.52;93643.34;5088551;28;20039;-63
2022/03/05 02:03:51;;;;;;;194.25;155.05;;;;;;;14.11;24.16;93651.72;5110713;28;20459;-62
2022/03/05 02:06:17;;;;;;;211.45;187.93;;;;;;;14.13;24.27;93645.91;5111468;27;20665;-63
2022/03/05 02:08:43;;;;;;;224.18;177.73;;;;;;;14.12;24.33;93647.09;5105110;28;20035;-62
2022/03/05 02:11:08;;;;;;;193.48;154.45;;;;;;;14.13;24.29;93648.59;5109642;28;20050;-62
2022/03/05 02:13:36;;;;;;;196.13;156.43;;;;;;;14.13;24.13;93648.59;5111662;27;20035;-63
2022/03/05 02:16:02;;;;;;;195.27;155.48;;;;;;;14.12;24.16;93655.91;5109268;27;20031;-63
2022/03/05 02:18:28;;;;;;;194.68;153.90;;;;;;;14.13;24.27;93646.66;5092898;27;20061;-63
2022/03/05 02:20:55;;;;;;;192.23;153.80;;;;;;;14.12;24.26;93644.41;5115030;27;20039;-63
2022/03/05 02:23:21;;;;;;;196.10;152.80;;;;;;;14.10;24.32;93650.22;5120070;27;20098;-63
2022/03/05 02:25:57;;;;;;;191.40;150.15;;;;;;;14.11;24.25;93657.09;5088574;28;20040;-63
2022/03/05 02:28:24;;;;;;;199.93;158.25;;;;;;;14.12;24.13;93660.53;5107414;27;20047;-62
2022/03/05 02:30:50;;;;;;;204.75;161.63;;;;;;;14.10;24.28;93657.53;5111968;27;20075;-63
2022/03/05 02:33:17;;;;;;;195.95;154.77;;;;;;;14.10;24.33;93654.84;5109448;27;20065;-62
2022/03/05 02:35:43;;;;;;;187.68;147.98;;;;;;;14.10;24.21;93655.59;5107674;27;20044;-63
2022/03/05 02:38:14;;;;;;;205.43;163.48;;;;;;;14.07;24.27;93655.72;5108219;27;20051;-62
2022/03/05 02:40:40;;;;;;;194.73;155.00;;;;;;;14.11;24.11;93659.03;5114079;27;20046;-62
2022/03/05 02:43:07;;;;;;;196.18;157.27;;;;;;;14.10;24.42;93655.59;5114979;27;20069;-63
2022/03/05 02:45:33;;;;;;;205.85;163.90;;;;;;;14.10;24.21;93652.91;5110008;27;20047;-62
2022/03/05 02:48:02;;;;;;;192.38;153.75;;;;;;;14.10;24.35;93646.78;5114756;27;20187;-62
2022/03/05 02:50:28;;;;;;;208.30;164.98;;;;;;;14.08;24.39;93638.41;5116683;27;20036;-63
2022/03/05 02:52:53;;;;;;;193.38;154.15;;;;;;;14.09;24.45;93639.91;5114507;27;20050;-62
2022/03/05 02:55:19;;;;;;;202.48;159.48;;;;;;;14.08;24.19;93644.53;5110629;27;20035;-63
2022/03/05 02:57:44;;;;;;;191.77;152.32;;;;;;;14.08;24.18;93633.75;5114214;27;20070;-63
2022/03/05 03:00:10;;;;;;;208.75;165.27;;;;;;;14.06;24.30;93633.44;5114161;27;20532;-62
2022/03/05 03:02:36;;;;;;;195.60;153.07;;;;;;;14.06;24.42;93630.75;5110904;27;20505;-61
2022/03/05 03:05:02;;;;;;;199.18;158.48;;;;;;;14.08;24.29;93636.47;5110906;27;20036;-63
2022/03/05 03:07:28;;;;;;;192.90;151.63;;;;;;;14.08;24.26;93627.63;5107551;27;20035;-63
2022/03/05 03:09:53;;;;;;;194.05;154.70;;;;;;;14.08;24.25;93633.00;5096115;27;20107;-62
2022/03/05 03:12:19;;;;;;;196.20;155.43;;;;;;;14.03;24.37;93612.81;5113497;27;20419;-63
2022/03/05 03:14:44;;;;;;;191.50;152.75;;;;;;;14.06;24.25;93622.69;5110127;27;20040;-63
2022/03/05 03:17:10;;;;;;;194.90;153.68;;;;;;;14.07;24.46;93621.50;5118233;27;20039;-63
2022/03/05 03:19:36;;;;;;;192.38;152.60;;;;;;;14.06;24.26;93620.00;5112200;27;20062;-62
2022/03/05 03:22:01;;;;;;;192.43;152.48;;;;;;;14.06;24.13;93621.94;5109017;27;20031;-63
2022/03/05 03:24:27;;;;;;;195.10;154.05;;;;;;;14.06;24.42;93619.25;5115445;27;20040;-62
2022/03/05 03:26:53;;;;;;;192.02;152.00;;;;;;;14.07;24.06;93618.81;5109601;27;20050;-63
2022/03/05 03:29:18;;;;;;;207.30;163.73;;;;;;;14.06;24.29;93620.00;5110823;27;20043;-63
2022/03/05 03:31:44;;;;;;;205.05;162.98;;;;;;;14.05;24.16;93612.38;5108843;27;20051;-63
2022/03/05 03:34:09;;;;;;;191.13;150.30;;;;;;;14.05;24.27;93620.44;5092791;28;20096;-63
2022/03/05 03:36:35;;;;;;;202.48;160.10;;;;;;;14.06;24.32;93628.06;5114390;27;20243;-63
2022/03/05 03:39:01;;;;;;;189.13;147.38;;;;;;;14.06;24.32;93613.88;5112890;27;20430;-62
2022/03/05 03:41:26;;;;;;;191.50;152.75;;;;;;;14.06;24.03;93613.88;5112624;27;20050;-62
2022/03/05 03:43:52;;;;;;;194.25;151.32;;;;;;;14.05;24.12;93607.00;5116048;27;20403;-62
2022/03/05 03:46:17;;;;;;;201.57;158.00;;;;;;;14.06;24.26;93608.50;5114859;27;20644;-63
2022/03/05 03:48:43;;;;;;;197.00;156.18;;;;;;;14.06;24.13;93614.63;5108928;27;20041;-63
2022/03/05 03:51:09;;;;;;;198.52;156.95;;;;;;;14.06;24.17;93605.81;5096489;27;20044;-63
2022/03/05 03:53:34;;;;;;;201.02;159.05;;;;;;;14.04;24.33;93617.00;5092019;27;20044;-62
2022/03/05 03:56:00;;;;;;;193.77;152.93;;;;;;;14.02;24.18;93608.63;5107280;27;20039;-63
2022/03/05 03:58:25;;;;;;;194.57;154.45;;;;;;;14.03;24.29;93598.63;5110195;27;20054;-62
2022/03/05 04:00:51;;;;;;;200.45;157.50;;;;;;;14.03;24.29;93599.38;5089725;28;20411;-63
2022/03/05 04:03:17;;;;;;;194.23;152.63;;;;;;;14.01;24.07;93596.38;5115389;27;20068;-63
2022/03/05 04:05:43;;;;;;;196.48;153.75;;;;;;;14.02;24.31;93600.56;5115078;27;20048;-62
2022/03/05 04:10:53;;;;;;;191.73;148.48;;;;;;;14.05;24.35;93610.44;5106454;27;20042;-62
2022/03/05 04:13:19;;;;;;;196.52;153.55;;;;;;;14.06;24.16;93603.13;5108702;27;20039;-63
2022/03/05 04:15:46;;;;;;;187.23;147.77;;;;;;;14.06;24.34;93608.50;5093802;27;20746;-63
2022/03/05 04:18:12;;;;;;;203.75;162.45;;;;;;;14.04;24.26;93602.81;5111355;27;20744;-63
2022/03/05 04:20:38;;;;;;;197.35;155.63;;;;;;;14.02;24.23;93603.25;5113349;27;20120;-62
2022/03/05 04:23:04;;;;;;;190.55;149.15;;;;;;;14.05;24.32;93612.38;5114086;27;20429;-63
2022/03/05 04:25:30;;;;;;;185.52;146.32;;;;;;;14.00;24.41;93610.25;5120337;27;20035;-62
2022/03/05 04:27:55;;;;;;;190.13;150.77;;;;;;;14.04;24.57;93619.69;5099457;27;20332;-61
2022/03/05 04:30:21;;;;;;;202.77;160.48;;;;;;;14.03;24.41;93617.44;5110087;27;20407;-63
2022/03/05 04:32:46;;;;;;;189.90;151.40;;;;;;;14.01;24.21;93615.19;5096393;28;20171;-62
2022/03/05 04:35:12;;;;;;;202.05;159.93;;;;;;;14.02;24.43;93614.00;5089157;27;20126;-63
2022/03/05 04:37:38;;;;;;;190.43;149.75;;;;;;;14.02;24.15;93610.56;5112334;27;20058;-62
2022/03/05 04:40:05;;;;;;;187.52;146.98;;;;;;;14.00;24.48;93610.25;5120755;27;20042;-62
2022/03/05 04:42:31;;;;;;;189.55;150.00;;;;;;;14.01;24.25;93622.50;5093314;28;20051;-62
2022/03/05 04:44:57;;;;;;;191.60;150.43;;;;;;;14.00;24.29;93621.75;5108238;27;20067;-63
2022/03/05 04:47:22;;;;;;;194.45;153.27;;;;;;;13.99;24.11;93631.00;5118669;27;21101;-63
2022/03/05 04:49:48;;;;;;;190.55;151.38;;;;;;;13.97;24.30;93624.56;5112923;27;20042;-62
2022/03/05 04:52:14;;;;;;;198.45;156.57;;;;;;;13.97;24.13;93630.69;5120977;27;20039;-63
2022/03/05 04:54:40;;;;;;;188.52;148.15;;;;;;;13.97;24.29;93632.63;5115413;27;20092;-62
2022/03/05 04:57:05;;;;;;;187.90;148.77;;;;;;;13.94;24.22;93642.31;5108058;27;20539;-62
2022/03/05 04:59:31;;;;;;;187.00;148.00;;;;;;;13.95;24.20;93646.50;5104853;28;20456;-63
2022/03/05 05:01:57;;;;;;;191.35;150.75;;;;;;;13.94;24.40;93650.38;5112175;27;20036;-63
2022/03/05 05:04:23;;;;;;;199.93;154.88;;;;;;;13.95;23.95;93651.13;5108575;27;20054;-63
2022/03/05 05:06:48;;;;;;;196.52;154.65;;;;;;;13.95;24.36;93645.75;5098675;27;20042;-63
2022/03/05 05:09:14;;;;;;;189.52;149.32;;;;;;;13.95;24.40;93640.38;5114356;27;20043;-63
2022/03/05 05:11:41;;;;;;;201.25;159.07;;;;;;;13.96;24.28;93647.25;5110578;27;20126;-63
2022/03/05 05:14:08;;;;;;;194.50;154.65;;;;;;;13.98;24.00;93648.31;5096490;27;20047;-63
2022/03/05 05:16:34;;;;;;;190.77;150.95;;;;;;;13.97;24.05;93643.38;5112178;27;20042;-63
2022/03/05 05:21:44;;;;;;;191.30;150.07;;;;;;;13.99;24.02;93655.19;5108496;27;20403;-63
2022/03/05 05:24:10;;;;;;;191.48;151.98;;;;;;;14.00;24.22;93650.56;5110750;28;20047;-62
2022/03/05 05:26:35;;;;;;;190.18;150.40;;;;;;;13.98;24.17;93652.94;5111466;27;20050;-61
2022/03/05 05:29:01;;;;;;;189.73;150.05;;;;;;;14.00;24.56;93647.88;5114774;28;20483;-63
2022/03/05 05:31:27;;;;;;;187.65;146.95;;;;;;;14.00;24.29;93655.94;5111254;28;20050;-62
2022/03/05 05:33:52;;;;;;;190.50;149.63;;;;;;;14.01;24.22;93650.13;5094216;28;20522;-64
2022/03/05 05:36:19;;;;;;;191.15;150.82;;;;;;;14.01;24.24;93650.13;5111748;28;20205;-63
2022/03/05 05:38:44;;;;;;;196.80;156.05;;;;;;;14.02;24.04;93642.81;5108827;27;20066;-63
2022/03/05 05:41:12;;;;;;;189.15;151.05;;;;;;;14.03;24.19;93653.16;5110180;28;20135;-63
2022/03/05 05:43:38;;;;;;;184.50;147.23;;;;;;;14.01;24.17;93644.75;5109565;28;20514;-63
2022/03/05 05:46:03;;;;;;;187.40;148.55;;;;;;;14.05;24.15;93647.34;5112350;27;20131;-63
2022/03/05 05:48:29;;;;;;;189.23;148.65;;;;;;;14.05;24.09;93648.09;5095669;28;20050;-64
2022/03/05 05:50:55;;;;;;;190.40;151.45;;;;;;;14.06;24.23;93651.53;5117874;27;20527;-61
2022/03/05 05:53:20;;;;;;;207.45;165.80;;;;;;;14.05;24.06;93645.41;5089151;27;20126;-64
2022/03/05 05:55:46;;;;;;;204.27;162.40;;;;;;;14.04;24.26;93649.28;5090171;27;20047;-63
2022/03/05 05:58:12;;;;;;;191.77;152.00;;;;;;;14.04;23.95;93646.59;5110382;27;20073;-63
2022/03/05 06:00:37;;;;;;;191.52;151.32;;;;;;;14.08;23.94;93660.66;5094977;28;20047;-63
2022/03/05 06:03:03;;;;;;;192.85;153.23;;;;;;;14.08;23.99;93657.22;5092892;27;20035;-64
2022/03/05 06:05:28;;;;;;;188.98;149.40;;;;;;;14.08;24.05;93652.59;5110059;27;20096;-65
2022/03/05 06:07:56;;;;;;;192.73;151.68;;;;;;;14.10;24.07;93658.28;5113599;27;20045;-64
2022/03/05 06:10:22;;;;;;;205.27;162.40;;;;;;;14.11;23.78;93670.53;5112486;27;20039;-63
2022/03/05 06:12:48;;;;;;;194.10;153.95;;;;;;;14.08;24.07;93659.91;5120071;27;20499;-64
2022/03/05 06:15:15;;;;;;;191.45;152.43;;;;;;;14.12;24.18;93665.91;5109324;27;20144;-64
2022/03/05 06:17:44;;;;;;;190.30;150.82;;;;;;;14.14;23.80;93674.28;5126234;27;20042;-63
2022/03/05 06:20:14;;;;;;;215.32;171.10;;;;;;;14.13;23.94;93668.16;5080413;27;20065;-64
2022/03/05 06:22:43;;;;;;;221.70;173.70;;;;;;;14.14;24.12;93664.28;5109857;27;20043;-64
2022/03/05 06:25:21;;;;;;;191.48;153.02;;;;;;;14.15;24.00;93671.16;5089186;27;20142;-66
2022/03/05 06:27:47;;;;;;;193.02;158.07;;;;;;;14.15;23.96;93662.34;5116648;27;20039;-65
2022/03/05 06:30:13;;;;;;;201.52;160.77;;;;;;;14.17;24.09;93659.97;5114513;27;20046;-64
2022/03/05 06:32:42;;;;;;;188.23;151.38;;;;;;;14.17;24.15;93660.72;5093011;28;20044;-64
2022/03/05 06:35:08;;;;;;;188.10;150.02;;;;;;;14.18;24.18;93673.00;5119498;27;20027;-67
2022/03/05 06:37:34;;;;;;;185.75;149.05;;;;;;;14.17;23.85;93668.78;5119693;27;20122;-62
2022/03/05 06:40:04;;;;;;;190.02;152.20;;;;;;;14.19;24.05;93673.75;5081088;27;20067;-64
2022/03/05 06:42:29;;;;;;;190.52;155.60;;;;;;;14.18;23.97;93673.00;5111184;27;20116;-64
2022/03/05 06:44:55;;;;;;;189.82;150.00;;;;;;;14.17;23.75;93668.78;5108098;27;20031;-64
2022/03/05 06:47:20;;;;;;;188.18;149.57;;;;;;;14.18;24.05;93675.69;5085103;27;20099;-63
2022/03/05 06:49:46;;;;;;;186.40;148.18;;;;;;;14.19;23.90;93679.13;5115360;27;20047;-63
2022/03/05 06:52:12;;;;;;;188.70;151.13;;;;;;;14.21;24.04;93678.69;5093190;27;20055;-63
2022/03/05 06:54:37;;;;;;;188.85;149.48;;;;;;;14.18;23.90;93678.38;5114784;27;20038;-65
2022/03/05 06:57:04;;;;;;;205.93;164.85;;;;;;;14.21;24.05;93678.69;5093358;27;20043;-62
2022/03/05 06:59:30;;;;;;;191.38;152.35;;;;;;;14.19;23.86;93687.19;5113843;27;20062;-64
2022/03/05 07:01:55;;;;;;;185.90;147.50;;;;;;;14.21;24.11;93689.44;5092660;27;20150;-63
2022/03/05 07:04:21;;;;;;;196.10;156.43;;;;;;;14.21;23.88;93692.13;5118638;27;20054;-63
2022/03/05 07:06:47;;;;;;;188.32;150.95;;;;;;;14.22;24.08;93688.25;5103663;28;20172;-63
2022/03/05 07:09:14;;;;;;;191.30;152.73;;;;;;;14.18;24.16;93686.44;5121921;27;20050;-62
2022/03/05 07:11:39;;;;;;;190.90;152.38;;;;;;;14.21;23.78;93682.13;5110946;27;20391;-64
2022/03/05 07:14:05;;;;;;;191.82;154.07;;;;;;;14.21;24.08;93686.75;5119448;27;20446;-63
2022/03/05 07:16:31;;;;;;;189.85;150.30;;;;;;;14.21;23.98;93686.75;5111676;27;20095;-63
2022/03/05 07:18:57;;;;;;;188.95;152.35;;;;;;;14.21;23.83;93692.13;5091909;28;20043;-64
2022/03/05 07:21:22;;;;;;;200.55;159.07;;;;;;;14.20;23.97;93685.25;5110678;27;20141;-65
2022/03/05 07:23:48;;;;;;;208.27;165.60;;;;;;;14.20;24.02;93693.31;5110998;27;20116;-63
2022/03/05 07:26:16;;;;;;;199.20;158.43;;;;;;;14.17;24.02;93686.88;5101620;27;20107;-64
2022/03/05 07:28:42;;;;;;;187.48;149.32;;;;;;;14.18;24.16;93696.44;5097628;28;20065;-64
2022/03/05 07:31:07;;;;;;;192.20;152.32;;;;;;;14.17;24.10;93697.63;5079834;27;20059;-64
2022/03/05 07:33:33;;;;;;;189.77;150.82;;;;;;;14.17;24.09;93694.94;5120917;27;20043;-63
2022/03/05 07:35:59;;;;;;;190.23;151.88;;;;;;;14.17;24.18;93695.69;5098459;28;20765;-68
2022/03/05 07:38:25;;;;;;;186.85;149.32;;;;;;;14.18;23.96;93705.25;5092074;28;20099;-64
2022/03/05 07:40:50;;;;;;;187.90;150.23;;;;;;;14.18;24.02;93704.50;5110711;27;20044;-66
2022/03/05 07:43:17;;;;;;;189.50;150.40;;;;;;;14.21;24.13;93705.56;5117457;27;20146;-65
2022/03/05 07:45:42;;;;;;;189.85;152.77;;;;;;;14.22;23.95;93709.75;5107906;27;20058;-66
2022/03/05 07:48:08;;;;;;;188.02;150.27;;;;;;;14.19;23.85;93697.94;5121956;27;20031;-67
2022/03/05 07:50:34;;;;;;;195.73;154.00;;;;;;;14.16;24.15;93704.94;5115839;27;20092;-66
2022/03/05 07:53:00;;;;;;;194.10;154.85;;;;;;;14.20;24.29;93698.69;5118445;27;20047;-65
2022/03/05 07:55:26;;;;;;;190.93;151.05;;;;;;;14.18;24.01;93693.75;5110092;27;20348;-65
2022/03/05 07:57:52;;;;;;;190.52;150.88;;;;;;;14.18;23.96;93704.50;5102715;27;20106;-65
2022/03/05 08:00:18;;;;;;;203.55;161.48;;;;;;;14.17;24.05;93703.75;5119782;27;20127;-65
2022/03/05 08:02:43;;;;;;;210.13;166.15;;;;;;;14.18;23.96;93697.19;5093623;27;20039;-66
2022/03/05 08:05:09;;;;;;;192.85;152.93;;;;;;;14.18;24.23;93701.81;5112696;27;20044;-65
2022/03/05 08:07:34;;;;;;;193.60;152.90;;;;;;;14.20;23.96;93698.69;5121954;27;20471;-61
2022/03/05 08:10:00;;;;;;;188.18;148.77;;;;;;;14.21;23.78;93700.19;5098405;27;20043;-62
2022/03/05 08:12:26;;;;;;;185.50;148.02;;;;;;;14.18;23.95;93701.81;5116210;27;20050;-62
2022/03/05 08:14:51;;;;;;;188.60;150.30;;;;;;;14.24;23.95;93702.00;5115717;27;20043;-61
2022/03/05 08:17:17;;;;;;;187.90;149.82;;;;;;;14.17;23.96;93689.56;5113572;27;20505;-62
2022/03/05 08:19:43;;;;;;;188.23;149.90;;;;;;;14.16;23.88;93699.56;5114954;27;20031;-62
2022/03/05 08:22:08;;;;;;;192.85;154.18;;;;;;;14.12;24.14;93693.56;5108727;27;20125;-62
2022/03/05 08:24:34;;;;;;;198.32;155.90;;;;;;;14.11;24.47;93694.75;5105436;27;20061;-63
2022/03/05 08:27:00;;;;;;;194.48;154.20;;;;;;;14.10;24.17;93698.63;5115485;27;20092;-62
2022/03/05 08:29:25;;;;;;;188.57;149.45;;;;;;;14.10;24.39;93700.56;5095110;28;20053;-63
2022/03/05 08:31:51;;;;;;;189.88;150.48;;;;;;;14.11;24.20;93696.69;5088988;28;20368;-61
2022/03/05 08:34:16;;;;;;;191.63;152.63;;;;;;;14.15;24.25;93692.69;5089320;27;20084;-63
2022/03/05 08:36:42;;;;;;;187.55;150.07;;;;;;;14.17;24.32;93689.56;5116437;27;20043;-64
2022/03/05 08:39:08;;;;;;;194.02;152.88;;;;;;;14.19;24.28;93692.56;5092778;27;20078;-63
2022/03/05 08:41:34;;;;;;;189.30;151.27;;;;;;;14.16;24.23;93688.81;5116329;27;20132;-64
2022/03/05 08:43:59;;;;;;;189.25;150.43;;;;;;;13.96;24.13;93684.91;5116265;27;20138;-63
2022/03/05 08:46:25;;;;;;;190.38;151.02;;;;;;;13.90;24.34;93683.94;5110159;27;20138;-63
2022/03/05 08:48:51;;;;;;;186.88;147.70;;;;;;;13.92;24.60;93689.63;5115835;27;20043;-63
2022/03/05 08:51:17;;;;;;;192.88;152.65;;;;;;;14.00;24.20;93691.66;5111634;27;20038;-63
2022/03/05 08:53:42;;;;;;;192.40;151.93;;;;;;;14.05;24.20;93679.59;5091868;28;20040;-63
2022/03/05 08:56:08;;;;;;;192.05;151.35;;;;;;;14.08;24.20;93686.78;5089493;27;20039;-64
2022/03/05 08:58:34;;;;;;;186.68;148.82;;;;;;;14.09;24.21;93682.91;5098285;27;20054;-63
2022/03/05 09:01:01;;;;;;;190.93;152.57;;;;;;;13.97;24.29;93684.47;5095064;28;20060;-62
2022/03/05 09:03:27;;;;;;;190.02;150.90;;;;;;;13.92;24.12;93682.31;5115700;27;20495;-62
2022/03/05 09:05:53;;;;;;;194.18;154.10;;;;;;;13.96;24.32;93682.97;5105128;27;20036;-63
2022/03/05 09:08:19;;;;;;;192.88;153.73;;;;;;;13.96;24.51;93677.56;5120015;27;20555;-63
2022/03/05 09:10:46;;;;;;;193.00;155.63;;;;;;;13.92;24.29;93682.31;5101496;27;20118;-63
2022/03/05 09:13:11;;;;;;;185.77;146.95;;;;;;;13.97;24.18;93679.09;5096514;27;20039;-63
2022/03/05 09:15:38;;;;;;;185.68;147.40;;;;;;;13.97;24.15;93671.00;5100908;27;20062;-63
2022/03/05 09:18:04;;;;;;;191.02;151.82;;;;;;;13.94;24.33;93666.50;5120340;27;20044;-63
2022/03/05 09:20:31;;;;;;;197.50;154.75;;;;;;;13.96;24.24;93674.88;5111775;27;20043;-61
2022/03/05 09:22:58;;;;;;;191.93;151.60;;;;;;;13.87;24.25;93657.94;5115306;27;20786;-62
2022/03/05 09:25:24;;;;;;;189.68;150.23;;;;;;;13.88;24.15;93668.25;5103141;28;20051;-62
2022/03/05 09:27:50;;;;;;;189.25;149.93;;;;;;;13.73;24.52;93678.72;5121792;27;20073;-62
2022/03/05 09:30:16;;;;;;;205.23;161.52;;;;;;;13.65;24.08;93677.44;5115801;28;20044;-62
2022/03/05 09:32:42;;;;;;;186.30;147.05;;;;;;;13.71;24.54;93674.94;5089457;28;20219;-63
2022/03/05 09:35:08;;;;;;;224.63;176.57;;;;;;;13.73;24.19;93670.66;5115069;28;20044;-62
2022/03/05 09:37:34;;;;;;;192.13;151.52;;;;;;;13.65;24.24;93668.66;5111562;27;20100;-62
2022/03/05 09:40:01;;;;;;;189.32;148.93;;;;;;;13.57;24.48;93665.44;5106339;28;20515;-63
2022/03/05 09:42:27;;;;;;;192.27;149.82;;;;;;;13.52;24.29;93666.75;5114534;28;20044;-60
2022/03/05 09:44:53;;;;;;;191.90;150.10;;;;;;;13.43;24.82;93655.16;5109374;27;20118;-63
2022/03/05 09:47:21;;;;;;;195.35;151.82;;;;;;;13.51;24.17;93657.19;5114594;27;20560;-63
2022/03/05 09:49:47;;;;;;;192.63;150.43;;;;;;;13.66;24.28;93662.81;5120979;28;20063;-61
2022/03/05 09:52:15;;;;;;;193.40;151.55;;;;;;;13.65;24.41;93663.28;5103575;28;20126;-62
2022/03/05 09:54:41;;;;;;;189.68;148.45;;;;;;;13.47;24.47;93664.59;5108315;27;20038;-62
2022/03/05 09:57:13;;;;;;;193.70;149.98;;;;;;;13.42;24.39;93672.44;5097399;28;20051;-64
2022/03/05 09:59:40;;;;;;;194.50;150.43;;;;;;;13.49;24.36;93651.47;5113422;28;20039;-64
2022/03/05 10:02:07;;;;;;;194.32;150.80;;;;;;;13.56;24.18;93663.19;5115687;28;20042;-62
2022/03/05 10:04:33;;;;;;;193.63;149.95;;;;;;;13.57;24.50;93664.69;5107810;28;20122;-64
2022/03/05 10:07:12;;;;;;;187.88;145.15;;;;;;;13.42;24.28;93651.72;5113739;28;20052;-62
2022/03/05 10:09:43;;;;;;;223.13;174.15;;;;;;;13.46;24.48;93659.66;5072498;28;20043;-62
2022/03/05 10:12:34;;;;;;;228.98;178.57;;;;;;;13.44;24.56;93667.38;5088633;28;20128;-61
2022/03/05 10:15:07;;;;;;;214.80;165.18;;;;;;;13.43;24.56;93672.00;5069066;28;20074;-61
2022/03/05 10:17:59;;;;;;;214.43;165.02;;;;;;;13.37;24.60;93663.00;5072970;28;20064;-60
2022/03/05 10:20:29;;;;;;;220.27;170.18;;;;;;;13.43;24.47;93661.25;5088256;28;20039;-61
2022/03/05 10:22:56;;;;;;;218.68;169.18;;;;;;;13.41;24.47;93663.63;5071553;28;20044;-62
2022/03/05 10:25:33;;;;;;;216.50;167.32;;;;;;;13.54;24.29;93652.88;5067969;28;20543;-61
2022/03/05 10:28:04;;;;;;;211.38;163.45;;;;;;;13.66;24.11;93662.81;5087775;28;20454;-61
2022/03/05 10:30:39;;;;;;;215.60;166.82;;;;;;;13.58;24.51;93658.88;5087896;28;20055;-61
2022/03/05 10:33:06;;;;;;;206.00;161.13;;;;;;;13.52;24.30;93658.69;5070382;27;20499;-63
2022/03/05 10:35:34;;;;;;;216.32;167.57;;;;;;;13.47;24.08;93653.84;5089413;27;20047;-61
2022/03/05 10:38:02;;;;;;;213.80;164.15;;;;;;;13.52;24.20;93661.38;5090894;27;20048;-63
2022/03/05 10:40:32;;;;;;;214.30;165.70;;;;;;;13.58;24.10;93658.13;5072075;27;20044;-62
2022/03/05 10:43:01;;;;;;;233.02;180.52;;;;;;;13.61;23.89;93658.03;5084008;27;20050;-62
2022/03/05 10:45:29;;;;;;;212.38;165.15;;;;;;;13.41;24.09;93658.25;5082990;27;21116;-61
2022/03/05 10:47:57;;;;;;;215.65;167.82;;;;;;;13.41;24.29;93657.50;5073126;27;20048;-62
2022/03/05 10:50:26;;;;;;;237.15;181.63;;;;;;;13.47;24.25;93661.91;5081526;27;20107;-61
2022/03/05 10:52:56;;;;;;;208.88;161.65;;;;;;;13.56;24.32;93657.81;5090157;27;20051;-62
2022/03/05 10:55:26;;;;;;;;;;;;;;;13.61;23.89;93662.63;5091609;27;21578;-61
2022/03/05 10:58:22;;;;;;;202.90;152.82;;;;;;;13.64;24.09;93665.22;5101547;27;20386;-61
2022/03/05 11:00:50;;;;;;;214.13;164.88;;;;;;;13.64;24.09;93653.72;5072136;28;20439;-61
2022/03/05 11:03:17;;;;;;;220.32;170.18;;;;;;;13.68;24.01;93654.31;5073064;27;20047;-61
2022/03/05 11:05:43;;;;;;;200.93;155.95;;;;;;;13.65;24.01;93664.00;5090708;27;20047;-62